Ulster, Pennsylvania
Current Conditions -  °F | °C
As of 11:14 PM on Monday 22 Dec 2014 (Local Time) from KELM Reporting Station
Light Rain Light Rain  
Wind Chill: 30°   Ceiling: 2300
Heat Index: 35°   Visibility: 8mi
Dew Point: 32°   Wind: 6mph
Humidity: 89%   Direction: 30°NNE
Pressure: 30.1"   Gusts: NA
Location:  41.85°N, 76.5°W
Report Text: KELM 230414Z AUTO 03005KT 8SM -RA BKN023 OVC046 02/00 A3010 RMK AO2 P0000 T00170000
Loading
Personal Weather Stations






























Interactive Weather Map New forecast layout! Learn more

10-Day Weather Forecast

Advertisements
Track Severe Weather on mobile